Flight Track Log - Related Links

Times and Time Zones

All times are in EDT time to prevent confusion due to time zone crossing. See the N406CT flight status page for this flight to view local times or setup timezone preferences in your user account.

Time Position Orientation Groundspeed Altitude Reporting Facility
EDT Latitude Longitude Course Direction KTS MPH feet Rate Location/Type
Sat 11:17:17 AM 37.7867 -87.2358 294° West 174 200 4,400  Level Indianapolis Center
Sat 11:18:19 AM 37.8050 -87.3144 286° West 187 215 6,900 2,146 Climbing Indianapolis Center
Sat 11:19:20 AM 37.8267 -87.3806 293° West 197 227 8,800 1,756 Climbing Indianapolis Center
Sat 11:20:22 AM 37.8458 -87.4542 288° West 213 245 10,500 1,707 Climbing Indianapolis Center
Sat 11:21:00 AM 38.1216 -87.4443 330° Northwest  Level Estimated
Sat 11:21:23 AM 37.8658 -87.5297 289° West 223 257 12,300  Level Indianapolis Center
Sat 11:22:25 AM 37.8867 -87.6047 289° West 225 259 14,000 1,645 Climbing Indianapolis Center
Sat 11:23:27 AM 37.9072 -87.6803 289° West 226 260 15,700 1,707 Climbing Indianapolis Center
Sat 11:24:28 AM 37.9281 -87.7561 289° West 226 260 17,500 1,659 Climbing Indianapolis Center
Sat 11:25:30 AM 37.9853 -87.7936 333° Northwest 241 277 19,100 1,561 Climbing Indianapolis Center
Sat 11:26:31 AM 38.0436 -87.8300 334° Northwest 233 268 20,700 1,268 Climbing Indianapolis Center
Sat 11:27:33 AM 38.1014 -87.8733 329° Northwest 240 276 21,700 927 Climbing Indianapolis Center
Sat 11:28:34 AM 38.1672 -87.9186 332° Northwest 263 303 22,600 829 Climbing Indianapolis Center
Sat 11:29:36 AM 38.2372 -87.9683 331° Northwest 282 325 23,400 871 Climbing Indianapolis Center
Sat 11:30:38 AM 38.3258 -88.0292 332° Northwest 297 342 24,400 927 Climbing Indianapolis Center
Sat 11:31:39 AM 38.4022 -88.0797 333° Northwest 304 350 25,300 769 Climbing Indianapolis Center
Sat 11:32:35 AM 38.4636 -88.1233 331° Northwest 308 354 25,900 763 Climbing Kansas City Center
Sat 11:33:37 AM 38.5400 -88.1769 331° Northwest 311 358 26,800 919 Climbing Kansas City Center
Sat 11:34:39 AM 38.6356 -88.2414 332° Northwest 317 365 27,800 871 Climbing Kansas City Center
Sat 11:35:41 AM 38.7147 -88.2947 332° Northwest 318 366 28,600 823 Climbing Kansas City Center
Sat 11:36:43 AM 38.7936 -88.3483 332° Northwest 318 366 29,500 829 Climbing Kansas City Center
Sat 11:37:44 AM 38.8717 -88.4033 331° Northwest 319 367 30,300 780 Climbing Kansas City Center
Sat 11:38:46 AM 38.9517 -88.4558 333° Northwest 319 367 31,100 774 Climbing Kansas City Center
Sat 11:39:48 AM 39.0281 -88.5097 331° Northwest 317 365 31,900 823 Climbing Kansas City Center
Sat 11:40:50 AM 39.1036 -88.5628 331° Northwest 313 360 32,800 871 Climbing Kansas City Center
Sat 11:41:52 AM 39.1769 -88.6128 332° Northwest 307 353 33,700 871 Climbing Kansas City Center
Sat 11:42:54 AM 39.2503 -88.6636 332° Northwest 304 350 34,600 774 Climbing Kansas City Center
Sat 11:43:56 AM 39.3336 -88.7217 332° Northwest 293 337 35,300 581 Climbing Kansas City Center
Sat 11:44:58 AM 39.4042 -88.7719 331° Northwest 291 335 35,800 233 Climbing Kansas City Center
Sat 11:46:56 AM 39.5425 -88.8706 331° Northwest 305 351 36,000 67 Climbing Chicago Center
Sat 11:47:58 AM 39.6217 -88.9247 332° Northwest 319 367 36,000  Level Chicago Center
Sat 11:49:06 AM 39.7206 -88.9931 332° Northwest 331 381 36,000  Level Kansas City Center
Sat 11:50:08 AM 39.8033 -89.0522 331° Northwest 338 389 36,000  Level Kansas City Center
Sat 11:51:10 AM 39.8858 -89.1122 331° Northwest 339 390 36,000  Level Kansas City Center
Sat 11:52:12 AM 39.9708 -89.1719 332° Northwest 345 397 36,000  Level Kansas City Center
Sat 11:53:14 AM 40.0567 -89.2650 320° Northwest 336 387 36,000  Level Kansas City Center
Sat 11:54:16 AM 40.1217 -89.3528 314° West 337 388 36,000  Level Kansas City Center
Sat 11:55:18 AM 40.1894 -89.4378 316° Northwest 336 387 36,000  Level Kansas City Center
Sat 11:56:11 AM 40.2425 -89.5053 316° Northwest 336 387 36,000  Level Chicago Center
Sat 11:57:12 AM 40.3089 -89.5889 316° Northwest 333 383 36,000  Level Chicago Center
Sat 11:58:14 AM 40.3900 -89.6889 317° Northwest 333 383 36,000  Level Chicago Center
Sat 11:59:15 AM 40.4564 -89.7736 316° Northwest 331 381 36,000  Level Chicago Center
Sat 12:00:17 PM 40.5233 -89.8569 317° Northwest 334 384 36,000  Level Chicago Center
Sat 12:01:19 PM 40.5886 -89.9411 316° Northwest 331 381 36,000  Level Chicago Center
Sat 12:02:20 PM 40.6553 -90.0236 317° Northwest 331 381 36,000  Level Chicago Center
Sat 12:03:22 PM 40.7217 -90.1072 316° Northwest 330 380 36,000  Level Chicago Center
Sat 12:04:24 PM 40.7981 -90.2092 315° West 328 377 36,000  Level Chicago Center
Sat 12:05:25 PM 40.8594 -90.2811 318° Northwest 332 382 36,000  Level Chicago Center
Sat 12:06:27 PM 40.9250 -90.3664 316° Northwest 330 380 36,000  Level Chicago Center
Sat 12:07:29 PM 40.9886 -90.4508 315° West 326 375 36,000  Level Chicago Center
Sat 12:08:30 PM 41.0544 -90.5347 316° Northwest 328 377 36,000  Level Chicago Center
Sat 12:09:32 PM 41.1328 -90.6353 316° Northwest 326 375 36,000  Level Chicago Center
Sat 12:10:34 PM 41.1975 -90.7172 316° Northwest 323 372 36,000  Level Chicago Center
Sat 12:11:35 PM 41.2606 -90.8000 315° West 319 367 36,000  Level Chicago Center
Sat 12:12:37 PM 41.3239 -90.8808 316° Northwest 318 366 36,000  Level Chicago Center
Sat 12:13:39 PM 41.3861 -90.9625 315° West 314 361 36,000  Level Chicago Center
Sat 12:14:40 PM 41.4481 -91.0439 315° West 314 361 36,000  Level Chicago Center
Sat 12:15:42 PM 41.5106 -91.1250 316° Northwest 313 360 36,000  Level Chicago Center
Sat 12:16:44 PM 41.5839 -91.2247 315° West 316 364 36,000  Level Chicago Center
Sat 12:17:45 PM 41.6472 -91.3064 316° Northwest 318 366 36,000  Level Chicago Center
Sat 12:18:47 PM 41.7108 -91.3897 316° Northwest 321 369 36,000  Level Chicago Center
Sat 12:19:49 PM 41.7739 -91.4725 316° Northwest 319 367 36,000  Level Chicago Center
Sat 12:20:51 PM 41.8369 -91.5572 315° West 323 372 36,000  Level Chicago Center
Sat 12:21:52 PM 41.9008 -91.6375 317° Northwest 318 366 36,000  Level Chicago Center
Sat 12:22:54 PM 41.9747 -91.7392 314° West 318 366 36,000  Level Chicago Center
Sat 12:23:56 PM 42.0361 -91.8242 314° West 318 366 36,000 -49 Level Chicago Center
Sat 12:24:57 PM 42.0983 -91.9058 316° Northwest 315 362 35,900 -341 Descending Chicago Center
Sat 12:25:59 PM 42.1617 -91.9911 315° West 322 371 35,300 -629 Descending Chicago Center
Sat 12:27:01 PM 42.2275 -92.0811 315° West 334 384 34,600 -639 Descending Chicago Center
Sat 12:28:01 PM 42.2956 -92.1733 315° West 341 392 34,000 -541 Descending Minneapolis Center
Sat 12:29:03 PM 42.3639 -92.2642 316° Northwest 344 396 33,500 -683 Descending Minneapolis Center
Sat 12:30:04 PM 42.4283 -92.3569 313° West 343 395 32,600 -732 Descending Minneapolis Center
Sat 12:31:06 PM 42.5086 -92.4653 315° West 341 392 32,000 -290 Descending Minneapolis Center
Sat 12:32:08 PM 42.5747 -92.5558 315° West 339 390 32,000  Level Minneapolis Center
Sat 12:33:10 PM 42.6375 -92.6456 314° West 332 382 32,000  Level Minneapolis Center
Sat 12:34:11 PM 42.7011 -92.7317 315° West 326 375 32,000  Level Minneapolis Center
Sat 12:35:13 PM 42.7631 -92.8208 313° West 326 375 32,000 -97 Level Minneapolis Center
Sat 12:36:15 PM 42.8256 -92.9094 314° West 327 376 31,800 -629 Descending Minneapolis Center
Sat 12:37:17 PM 42.9053 -93.0200 315° West 341 392 30,700 -905 Descending Minneapolis Center
Sat 12:38:21 PM 42.9722 -93.1131 315° West 346 398 29,900 -912 Descending Minneapolis Center
Sat 12:39:22 PM 43.0383 -93.2058 314° West 343 395 28,800 -1,073 Descending Minneapolis Center
Sat 12:40:24 PM 43.1044 -93.2992 314° West 345 397 27,700 -1,113 Descending Minneapolis Center
Sat 12:41:26 PM 43.1683 -93.3900 314° West 335 386 26,500 -1,258 Descending Minneapolis Center
Sat 12:42:28 PM 43.2411 -93.4956 313° West 321 369 25,100 -1,161 Descending Minneapolis Center
Sat 12:43:30 PM 43.3253 -93.5222 347° North 336 387 24,100 -1,122 Descending Minneapolis Center
Sat 12:44:31 PM 43.4175 -93.5050 North 340 391 22,800 -1,512 Descending Minneapolis Center
Sat 12:45:33 PM 43.5069 -93.4975 North 328 377 21,000 -1,790 Descending Minneapolis Center
Sat 12:46:35 PM 43.5964 -93.4964 North 307 353 19,100 -1,597 Descending Minneapolis Center
Sat 12:47:37 PM 43.6753 -93.5039 356° North 290 334 17,700 -1,597 Descending Minneapolis Center
Sat 12:48:39 PM 43.7522 -93.5047 360° North 278 320 15,800 -2,032 Descending Minneapolis Center
Sat 12:49:41 PM 43.8422 -93.4928 North 272 313 13,500 -1,984 Descending Minneapolis Center
Sat 12:50:43 PM 43.9186 -93.4903 North 275 316 11,700 -1,268 Descending Minneapolis Center
Sat 12:51:44 PM 43.9764 -93.4958 356° North 268 308 10,900 -1,415 Descending Minneapolis Center
Sat 12:52:46 PM 44.0572 -93.4903 North 246 283 8,800 -1,403 Descending Minneapolis Center
Sat 12:53:48 PM 44.1258 -93.4789 North 248 285 8,000 -1,113 Descending Minneapolis Center
Sat 12:54:50 PM 44.1906 -93.4711 North 235 270 6,500 -941 Descending Minneapolis Center
Sat 12:56:53 PM 44.3192 -93.4203 16° North 218 251 5,100 -454 Descending Minneapolis Center
Sat 12:57:55 PM 44.3639 -93.3642 42° Northeast 216 249 5,100 -48 Level Minneapolis Center
Sat 12:58:57 PM 44.4086 -93.3078 42° Northeast 217 250 5,000 -488 Descending Minneapolis Center
Sat 12:59:58 PM 44.4544 -93.2522 41° Northeast 220 253 4,100 -732 Descending Minneapolis Center
Sat 01:01:00 PM 44.5028 -93.1992 38° Northeast 222 255 3,500 -484 Descending Minneapolis Center
Sat 01:02:02 PM 44.5500 -93.1511 36° Northeast 213 245 3,100 -194 Descending Minneapolis Center
Sat 01:03:04 PM 44.6031 -93.0964 36° Northeast 200 230 3,100  Level Minneapolis Center
Sat 01:04:05 PM 44.6314 -93.0311 59° Northeast 203 234 3,100  Level Minneapolis Center
Sat 01:05:07 PM 44.6583 -92.9647 60° Northeast 199 229 3,100 -145 Level Minneapolis Center
Sat 01:06:09 PM 44.6878 -92.9000 57° Northeast 200 230 2,800 -244 Descending Minneapolis Center
Sat 01:07:10 PM 44.7394 -92.8906 North 189 217 2,600 -98 Descending Minneapolis Center
Sat 01:08:12 PM 44.7908 -92.9244 335° Northwest 174 200 2,600  Level Minneapolis Center
Sat 01:09:14 PM 44.8292 -92.9606 326° Northwest 167 192 2,600 -49 Level Minneapolis Center
Sat 01:10:15 PM 44.8578 -92.9869 327° Northwest 122 140 2,500 -311 Descending Minneapolis Center
Sat 01:11:29 PM 44.8808 -93.0100 325° Northwest 103 119 1,900 -529 Descending Minneapolis Center
Sat 01:12:31 PM 44.9056 -93.0333 326° Northwest 90 104 1,300 -435 Descending Minneapolis Center
Sat 01:13:33 PM 44.9283 -93.0556 325° Northwest 88 101 1,000 -290 Descending Minneapolis Center

Login

Don't have an account? Register now (free) for customized features, flight alerts, and more!